ADDS METAR Data INFO
IDs: Format: Raw Decoded Include TAF

Data at: 2053 UTC 26 May 2017

KCXO 261953Z 18012KT 10SM BKN041 BKN050 32/22 A2987 RMK AO2 SLP110 T03220222
KCXO 261853Z 18014KT 10SM BKN038 32/22 A2988 RMK AO2 SLP115 T03170222
KCXO 261753Z 20013KT 10SM FEW029 BKN039 30/22 A2991 RMK AO2 SLP123 T03000217 10306 20233 58000
KCXO 261653Z 20012G20KT 10SM OVC040 29/22 A2991 RMK AO2 SLP125 T02890222
KCXO 261553Z 17009KT 10SM SCT021 OVC038 27/22 A2991 RMK AO2 SLP125 T02720222
KCXO 261545Z 17009KT 10SM SCT021 SCT031 OVC038 27/22 A2991 RMK AO2 T02720222
KCXO 261453Z 18009KT 10SM BKN017 BKN022 OVC032 26/22 A2991 RMK AO2 SLP125 T02560222 51015
KCXO 261419Z 17006KT 10SM BKN017 OVC036 25/22 A2990 RMK AO2 T02500222
KCXO 261353Z 16007KT 10SM FEW017 OVC034 24/22 A2990 RMK AO2 SLP120 T02440217
KCXO 261253Z 16006KT 10SM SCT015 OVC031 24/22 A2988 RMK AO2 SLP115 T02390217
KCXO 261223Z 17007KT 10SM FEW015 SCT024 OVC030 23/21 A2987 RMK AO2 T02330211
KCXO 261153Z 16007KT 10SM FEW015 SCT021 OVC029 23/21 A2986 RMK AO2 SLP109 T02330211 10239 20217 53014
KCXO 261053Z 18007KT 10SM OVC025 23/21 A2985 RMK AO2 SLP105 T02330211
KCXO 260953Z AUTO 17010KT 10SM OVC021 23/21 A2983 RMK AO2 SLP097 T02330206
KCXO 260853Z AUTO 19007KT 10SM OVC018 23/20 A2982 RMK AO2 SLP094 T02280200 53008
KCXO 260814Z AUTO 17006KT 10SM BKN018 22/19 A2981 RMK AO2 T02220194
KCXO 260753Z AUTO 17007KT 10SM FEW018 22/19 A2980 RMK AO2 SLP088 T02170194
KCXO 260653Z AUTO 17008KT 10SM CLR 22/19 A2980 RMK AO2 SLP086 T02220194
KCXO 260553Z AUTO 17007KT 10SM CLR 22/19 A2980 RMK AO2 SLP086 T02220189 10300 20222 403280117 50008
KCXO 260453Z AUTO 17010KT 10SM CLR 23/18 A2981 RMK AO2 SLP089 T02280178
KCXO 260353Z AUTO 17010KT 10SM CLR 23/17 A2980 RMK AO2 SLP085 T02330172
KCXO 260253Z AUTO 16010KT 10SM CLR 24/17 A2977 RMK AO2 SLP079 T02390167 53009
KCXO 260153Z 15011KT 10SM CLR 25/14 A2975 RMK AO2 SLP072 T02500139
KCXO 260053Z 16011KT 10SM CLR 27/14 A2975 RMK AO2 SLP070 T02720144
KCXO 252353Z 17013KT 10SM CLR 30/14 A2974 RMK AO2 SLP069 T03000139 10328 20300 58007
KCXO 252341Z 17015G21KT 10SM FEW002 30/14 A2975 RMK AO2 T03000144
KCXO 252253Z 19015KT 10SM CLR 31/14 A2975 RMK AO2 SLP072 T03110139
KCXO 252153Z 20011G21KT 10SM CLR 32/13 A2976 RMK AO2 SLP075 T03170133
KCXO 252053Z 21014G23KT 10SM CLR 32/14 A2977 RMK AO2 PK WND 17026/2014 SLP076 T03220139 56014
KCXO 251953Z 19016G22KT 10SM CLR 32/16 A2977 RMK AO2 SLP079 T03170156
KCXO 251853Z 17015G20KT 10SM CLR 31/16 A2979 RMK AO2 SLP085 T03110161
KCXO 251753Z 18017G21KT 10SM CLR 31/16 A2981 RMK AO2 SLP090 T03060156 10306 20122 58007
KCXO 251653Z 21013G20KT 10SM CLR 29/15 A2982 RMK AO2 SLP095 T02890150
KCXO 251553Z 19018G22KT 10SM CLR 28/15 A2982 RMK AO2 SLP095 T02830150
KCXO 251453Z 20010G18KT 10SM CLR 26/17 A2983 RMK AO2 SLP097 T02560167 51007
KCXO 251353Z 20008KT 10SM CLR 22/17 A2982 RMK AO2 SLP096 T02220172
KCXO 251253Z 15003KT 10SM CLR 18/15 A2981 RMK AO2 SLP092 T01780150
KCXO 251153Z 00000KT 10SM CLR 12/12 A2980 RMK AO2 SLP090 T01220117 10133 20117 53016
KCXO 251053Z 00000KT 10SM CLR 12/11 A2978 RMK AO2 SLP080 T01220111
KCXO 250953Z AUTO 00000KT 10SM CLR 12/12 A2976 RMK AO2 SLP076 T01220117


Page loaded:  20:53 UTC  |   01:53 PM Pacific  |   02:53 PM Mountain  |   03:53 PM Central  |   04:53 PM Eastern

 

ADVISORIES

FORECASTS

FORECASTS

OBSERVATIONS

USER TOOLS

ABOUT US